Flight Track Log - Related Links

Times and Time Zones

All times are in EST time to prevent confusion due to time zone crossing. See the UCA1001 flight status page for this flight to view local times or setup timezone preferences in your user account.

Time Position Orientation Groundspeed Altitude Reporting Facility
EST Latitude Longitude Course Direction KTS MPH feet Rate Location/Type
Wed 02:33:01 PM 43.1092 -77.6853 214° Southwest 115 132 1,500  Level Cleveland Center
Wed 02:33:49 PM 43.0922 -77.7008 214° Southwest 105 121 3,600 1,981 Climbing Cleveland Center
Wed 02:34:44 PM 43.0631 -77.7061 188° South 124 143 4,900 1,231 Climbing Cleveland Center
Wed 02:35:46 PM 43.0131 -77.7075 181° South 169 194 6,000 1,113 Climbing Cleveland Center
Wed 02:36:48 PM 42.9597 -77.7158 187° South 188 216 7,200 1,452 Climbing Cleveland Center
Wed 02:37:50 PM 42.8897 -77.7250 185° South 206 237 9,000 1,500 Climbing Cleveland Center
Wed 02:38:52 PM 42.8350 -77.7444 195° South 206 237 10,300 1,258 Climbing Cleveland Center
Wed 02:39:54 PM 42.8183 -77.8056 250° West 176 203 11,600 1,258 Climbing Cleveland Center
Wed 02:40:56 PM 42.7986 -77.8672 246° West 177 204 12,900 1,355 Climbing Cleveland Center
Wed 02:41:58 PM 42.7758 -77.9400 247° West 191 220 14,400 1,355 Climbing Cleveland Center
Wed 02:43:00 PM 42.7542 -78.0114 248° West 188 216 15,700 774 Climbing Cleveland Center
Wed 02:44:02 PM 42.7319 -78.0825 247° West 207 238 16,000 145 Climbing Cleveland Center
Wed 02:45:04 PM 42.7056 -78.1661 247° West 237 273 16,000  Level Cleveland Center
Wed 02:46:06 PM 42.6775 -78.2547 247° West 255 293 16,000  Level Cleveland Center
Wed 02:47:08 PM 42.6497 -78.3414 246° West 255 293 16,000  Level Cleveland Center
Wed 02:48:10 PM 42.6231 -78.4264 247° West 250 288 16,000  Level Cleveland Center
Wed 02:49:12 PM 42.5914 -78.5258 247° West 244 281 16,000  Level Cleveland Center
Wed 02:50:14 PM 42.5644 -78.6114 247° West 246 283 16,000 -97 Level Cleveland Center
Wed 02:51:16 PM 42.5353 -78.7022 246° West 247 284 15,800 -97 Descending Cleveland Center
Wed 02:52:18 PM 42.5094 -78.7828 247° West 248 285 15,800  Level Cleveland Center
Wed 02:53:20 PM 42.4819 -78.8683 246° West 249 287 15,800  Level Cleveland Center
Wed 02:54:22 PM 42.4522 -78.9614 247° West 247 284 15,800  Level Cleveland Center
Wed 02:55:24 PM 42.4269 -79.0417 247° West 245 282 15,800  Level Cleveland Center
Wed 02:56:26 PM 42.3994 -79.1267 246° West 247 284 15,800  Level Cleveland Center
Wed 02:57:28 PM 42.3653 -79.2303 246° West 250 288 15,800 48 Level Cleveland Center
Wed 02:58:30 PM 42.3375 -79.3175 247° West 252 290 15,900 48 Climbing Cleveland Center
Wed 02:59:32 PM 42.3064 -79.4131 246° West 253 291 15,900  Level Cleveland Center
Wed 03:00:34 PM 42.2803 -79.4919 246° West 254 292 15,900  Level Cleveland Center
Wed 03:01:36 PM 42.2514 -79.5781 246° West 254 292 15,900  Level Cleveland Center
Wed 03:02:38 PM 42.2172 -79.6817 246° West 254 292 15,900  Level Cleveland Center
Wed 03:03:40 PM 42.1878 -79.7686 245° Southwest 256 295 15,900  Level Cleveland Center
Wed 03:04:42 PM 42.1581 -79.8567 246° West 256 295 15,900  Level Cleveland Center
Wed 03:05:44 PM 42.1294 -79.9444 246° West 256 295 15,900  Level Cleveland Center
Wed 03:06:46 PM 42.1000 -80.0331 246° West 260 299 15,900  Level Cleveland Center
Wed 03:07:48 PM 42.0664 -80.1356 246° West 257 296 15,900  Level Cleveland Center
Wed 03:08:50 PM 42.0358 -80.2250 245° Southwest 258 297 15,900  Level Cleveland Center
Wed 03:09:52 PM 42.0053 -80.3125 245° Southwest 259 298 15,900  Level Cleveland Center
Wed 03:10:54 PM 41.9753 -80.4017 246° West 260 299 15,900  Level Cleveland Center
Wed 03:11:56 PM 41.9461 -80.4917 246° West 260 299 15,900  Level Cleveland Center
Wed 03:12:58 PM 41.9150 -80.5781 244° Southwest 255 293 15,900  Level Cleveland Center
Wed 03:14:00 PM 41.8847 -80.6661 245° Southwest 258 297 15,900 48 Level Cleveland Center
Wed 03:15:02 PM 41.8544 -80.7550 245° Southwest 258 297 16,000 49 Climbing Cleveland Center
Wed 03:16:03 PM 41.8192 -80.8572 245° Southwest 258 297 16,000  Level Cleveland Center
Wed 03:17:05 PM 41.7878 -80.9456 245° Southwest 258 297 16,000  Level Cleveland Center
Wed 03:18:07 PM 41.7578 -81.0331 245° Southwest 258 297 16,000  Level Cleveland Center
Wed 03:19:09 PM 41.7278 -81.1225 246° West 259 298 16,000  Level Cleveland Center
Wed 03:20:11 PM 41.6967 -81.2106 245° Southwest 259 298 16,000  Level Cleveland Center
Wed 03:21:13 PM 41.6661 -81.2983 245° Southwest 259 298 16,000  Level Cleveland Center
Wed 03:22:15 PM 41.6342 -81.3864 244° Southwest 259 298 16,000  Level Cleveland Center
Wed 03:23:17 PM 41.5978 -81.4897 245° Southwest 260 299 16,000  Level Cleveland Center
Wed 03:24:19 PM 41.5672 -81.5783 245° Southwest 260 299 16,000  Level Cleveland Center
Wed 03:25:21 PM 41.5344 -81.6664 244° Southwest 260 299 16,000  Level Cleveland Center
Wed 03:26:23 PM 41.5042 -81.7547 245° Southwest 262 302 16,000 48 Level Cleveland Center
Wed 03:27:25 PM 41.4728 -81.8431 245° Southwest 262 302 16,100 48 Climbing Cleveland Center
Wed 03:28:27 PM 41.4408 -81.9308 244° Southwest 262 302 16,100  Level Cleveland Center
Wed 03:29:29 PM 41.4072 -82.0350 247° West 262 302 16,100  Level Cleveland Center
Wed 03:30:31 PM 41.3772 -82.1258 246° West 263 303 16,100  Level Cleveland Center
Wed 03:31:33 PM 41.3483 -82.2164 247° West 267 307 16,100  Level Cleveland Center
Wed 03:32:35 PM 41.3175 -82.3061 245° Southwest 266 306 16,100  Level Cleveland Center
Wed 03:33:37 PM 41.2886 -82.3969 247° West 266 306 16,100  Level Cleveland Center
Wed 03:34:38 PM 41.2589 -82.4861 246° West 265 305 16,100  Level Cleveland Center
Wed 03:35:40 PM 41.2286 -82.5767 246° West 265 305 16,100  Level Cleveland Center
Wed 03:36:42 PM 41.1928 -82.6825 246° West 266 306 16,100  Level Cleveland Center
Wed 03:37:44 PM 41.1622 -82.7731 246° West 266 306 16,100  Level Cleveland Center
Wed 03:38:46 PM 41.1314 -82.8642 246° West 266 306 16,100  Level Cleveland Center
Wed 03:39:48 PM 41.1000 -82.9569 246° West 270 311 16,100  Level Cleveland Center
Wed 03:40:50 PM 41.0703 -83.0472 246° West 269 310 16,100  Level Cleveland Center
Wed 03:41:52 PM 41.0389 -83.1389 246° West 269 310 16,100  Level Cleveland Center
Wed 03:43:56 PM 40.9747 -83.3250 246° West 267 307 16,100 -32 Level Cleveland Center
Wed 03:44:58 PM 40.9439 -83.4153 246° West 267 307 16,000 -48 Descending Cleveland Center
Wed 03:46:00 PM 40.9125 -83.5056 245° Southwest 268 308 16,000  Level Cleveland Center
Wed 03:47:02 PM 40.8756 -83.6125 245° Southwest 268 308 16,000  Level Cleveland Center
Wed 03:48:04 PM 40.8439 -83.7022 245° Southwest 268 308 16,000  Level Cleveland Center
Wed 03:49:06 PM 40.8128 -83.7911 245° Southwest 268 308 16,000  Level Cleveland Center
Wed 03:50:17 PM 40.7756 -83.8978 245° Southwest 268 308 16,000  Level Indianapolis Center
Wed 03:51:19 PM 40.7442 -83.9872 245° Southwest 269 310 16,000  Level Indianapolis Center
Wed 03:52:21 PM 40.7133 -84.0767 246° West 270 311 16,000  Level Indianapolis Center
Wed 03:53:24 PM 40.6814 -84.1661 245° Southwest 272 313 16,000  Level Indianapolis Center
Wed 03:54:26 PM 40.6428 -84.2731 245° Southwest 273 314 16,000  Level Indianapolis Center
Wed 03:55:28 PM 40.6108 -84.3619 245° Southwest 271 312 16,000  Level Indianapolis Center
Wed 03:56:30 PM 40.5794 -84.4517 245° Southwest 271 312 16,000  Level Indianapolis Center
Wed 03:57:32 PM 40.5478 -84.5419 245° Southwest 274 315 16,000  Level Indianapolis Center
Wed 03:58:34 PM 40.5156 -84.6311 245° Southwest 272 313 16,000  Level Indianapolis Center
Wed 03:59:36 PM 40.4833 -84.7214 245° Southwest 274 315 16,000  Level Indianapolis Center
Wed 04:00:38 PM 40.4453 -84.8281 245° Southwest 272 313 16,000  Level Indianapolis Center
Wed 04:01:40 PM 40.4142 -84.9133 244° Southwest 272 313 16,000 -97 Level Indianapolis Center
Wed 04:02:42 PM 40.3803 -85.0033 244° Southwest 274 315 15,800 -581 Descending Indianapolis Center
Wed 04:03:44 PM 40.3475 -85.0969 245° Southwest 281 323 14,800 -1,065 Descending Indianapolis Center
Wed 04:04:46 PM 40.3067 -85.2086 244° Southwest 284 327 13,600 -1,065 Descending Indianapolis Center
Wed 04:05:48 PM 40.2739 -85.2986 245° Southwest 278 320 12,600 -968 Descending Indianapolis Center
Wed 04:06:50 PM 40.2417 -85.3842 244° Southwest 267 307 11,600 -774 Descending Indianapolis Center
Wed 04:07:52 PM 40.2083 -85.4644 241° Southwest 258 297 11,000 -290 Descending Indianapolis Center
Wed 04:08:54 PM 40.1739 -85.5425 240° Southwest 251 289 11,000  Level Indianapolis Center
Wed 04:09:56 PM 40.1336 -85.6369 241° Southwest 249 287 11,000  Level Indianapolis Center
Wed 04:10:58 PM 40.1003 -85.7153 241° Southwest 249 287 11,000 -97 Level Indianapolis Center
Wed 04:12:00 PM 40.0656 -85.7925 240° Southwest 247 284 10,800 -532 Descending Indianapolis Center
Wed 04:13:02 PM 40.0306 -85.8733 241° Southwest 256 295 9,900 -919 Descending Indianapolis Center
Wed 04:14:04 PM 39.9825 -85.9433 228° Southwest 259 298 8,900 -968 Descending Indianapolis Center
Wed 04:15:06 PM 39.9300 -86.0081 223° Southwest 260 299 7,900 -1,065 Descending Indianapolis Center
Wed 04:16:08 PM 39.8792 -86.0756 226° Southwest 237 273 6,700 -1,355 Descending Indianapolis Center
Wed 04:17:10 PM 39.8389 -86.1278 225° Southwest 218 251 5,100 -1,694 Descending Indianapolis Center
Wed 04:18:12 PM 39.8006 -86.1775 225° Southwest 206 237 3,200 -1,355 Descending Indianapolis Center
Wed 04:19:14 PM 39.7678 -86.2178 223° Southwest 176 203 2,300 -774 Descending Indianapolis Center
Wed 04:20:16 PM 39.7461 -86.2450 224° Southwest 134 154 1,600 -581 Descending Indianapolis Center
Wed 04:21:18 PM 39.7269 -86.2683 223° Southwest 109 125 1,100 -387 Descending Indianapolis Center
Wed 04:22:20 PM 39.7114 -86.2894 226° Southwest 96 110 800 -145 Descending Indianapolis Center
Wed 04:23:22 PM 39.7153 -86.2900 354° North 60 69 800  Level Indianapolis Center
Wed 04:24:24 PM 39.7156 -86.2931 277° West 26 30 800  Level Indianapolis Center
Wed 04:25:26 PM 39.7156 -86.2931 277° West 12 14 800  Level Indianapolis Center
Wed 04:26:28 PM 39.7156 -86.2928 90° East 5 6 800  Level Indianapolis Center
Wed 04:27:30 PM 39.7156 -86.2928 90° East 2 2 800  Level Indianapolis Center
Wed 04:28:32 PM 39.7156 -86.2931 270° West 1 1 800  Level Indianapolis Center

Login

Don't have an account? Register now (free) for customized features, flight alerts, and more!